createdAt,value
2024-01-06T00:01:16.352Z,92.90
2024-01-06T00:03:43.824Z,93.20
2024-01-06T00:06:14.062Z,92.70
2024-01-06T00:08:40.921Z,92.90
2024-01-06T00:11:07.642Z,93.10
2024-01-06T00:13:34.538Z,93.00
2024-01-06T00:16:02.351Z,93.10
2024-01-06T00:18:29.190Z,92.80
2024-01-06T00:20:56.081Z,92.80
2024-01-06T00:23:22.794Z,92.90
2024-01-06T00:25:49.456Z,92.80
2024-01-06T00:28:16.154Z,92.90
2024-01-06T00:30:42.961Z,92.70
2024-01-06T00:33:09.792Z,92.60
2024-01-06T00:35:36.588Z,91.90
2024-01-06T00:38:03.524Z,92.20
2024-01-06T00:40:30.259Z,92.60
2024-01-06T01:19:11.988Z,92.00
2024-01-06T01:21:38.827Z,92.30
2024-01-06T01:24:05.914Z,92.30
2024-01-06T01:26:32.654Z,92.00
2024-01-06T01:28:59.283Z,91.40
2024-01-06T01:31:26.067Z,91.70
2024-01-06T01:33:52.890Z,91.90
2024-01-06T01:36:19.636Z,91.80
2024-01-06T01:38:46.419Z,91.60
2024-01-06T01:41:13.122Z,91.90
2024-01-06T01:43:39.859Z,92.10
2024-01-06T01:46:06.866Z,92.20
2024-01-06T01:48:35.786Z,91.90
2024-01-06T01:51:03.082Z,91.50
2024-01-06T01:53:30.694Z,92.00
2024-01-06T01:55:57.795Z,91.60
2024-01-06T01:58:24.768Z,92.00
2024-01-06T02:00:51.694Z,92.10
2024-01-06T02:03:18.664Z,92.00
2024-01-06T02:05:45.453Z,91.80
2024-01-06T02:08:12.202Z,91.80
2024-01-06T02:10:38.990Z,92.00
2024-01-06T02:13:12.472Z,91.90
2024-01-06T02:15:39.688Z,91.40
2024-01-06T02:18:07.071Z,91.60
2024-01-06T02:20:34.160Z,91.40
2024-01-06T02:23:01.907Z,91.70
2024-01-06T02:25:28.853Z,91.70
2024-01-06T02:27:56.018Z,91.80
2024-01-06T02:30:22.948Z,91.90
2024-01-06T02:32:49.737Z,91.70
2024-01-06T02:35:16.435Z,91.60
2024-01-06T02:37:43.126Z,91.80
2024-01-06T02:40:10.592Z,91.50
2024-01-06T02:42:37.725Z,91.70
2024-01-06T02:45:04.663Z,91.50
2024-01-06T02:47:31.389Z,91.80
2024-01-06T02:49:58.213Z,91.80
2024-01-06T02:52:24.938Z,91.90
2024-01-06T02:54:51.655Z,92.00
2024-01-06T02:57:19.064Z,91.90
2024-01-06T02:59:45.804Z,91.90
2024-01-06T03:02:12.825Z,91.80
2024-01-06T03:04:39.536Z,91.90
2024-01-06T03:07:06.288Z,92.00
2024-01-06T03:09:33.028Z,91.90
2024-01-06T03:11:59.815Z,91.80
2024-01-06T03:14:26.579Z,91.60
2024-01-06T03:16:53.282Z,91.70
2024-01-06T03:19:20.173Z,91.80
2024-01-06T03:21:47.040Z,91.90
2024-01-06T03:24:13.844Z,91.90
2024-01-06T03:26:40.528Z,91.30
2024-01-06T03:29:07.327Z,91.90
2024-01-06T03:31:34.153Z,91.70
2024-01-06T03:34:01.273Z,91.90
2024-01-06T03:36:28.083Z,91.80
2024-01-06T03:38:54.808Z,91.60
2024-01-06T03:41:21.541Z,91.80
2024-01-06T03:43:48.172Z,92.10
2024-01-06T03:46:14.855Z,91.70
2024-01-06T03:48:41.634Z,91.90
2024-01-06T03:51:08.889Z,91.80
2024-01-06T03:53:35.643Z,92.00
2024-01-06T03:56:02.338Z,92.20
2024-01-06T03:58:29.052Z,91.70
2024-01-06T04:00:55.779Z,91.90
2024-01-06T04:03:22.624Z,92.20
2024-01-06T04:05:49.395Z,91.80
2024-01-06T04:08:16.187Z,91.70
2024-01-06T04:10:43.088Z,92.20
2024-01-06T04:13:09.909Z,91.80
2024-01-06T04:15:36.617Z,91.80
2024-01-06T04:18:04.842Z,91.80
2024-01-06T04:20:32.348Z,91.70
2024-01-06T04:22:59.206Z,91.70
2024-01-06T04:25:26.178Z,91.50
2024-01-06T04:27:52.948Z,91.80
2024-01-06T04:30:21.661Z,92.00
2024-01-06T04:32:51.218Z,91.90
2024-01-06T04:35:18.291Z,91.80
2024-01-06T04:37:45.095Z,91.80
2024-01-06T04:40:12.299Z,91.60
2024-01-06T04:42:39.266Z,91.70
2024-01-06T04:45:06.520Z,92.00
2024-01-06T04:47:33.258Z,92.10
2024-01-06T04:50:00.004Z,92.30
2024-01-06T04:52:26.714Z,92.30
2024-01-06T04:54:53.492Z,92.50
2024-01-06T04:57:21.814Z,92.90
2024-01-06T04:59:48.681Z,93.00
2024-01-06T05:02:15.416Z,92.70
2024-01-06T05:04:42.075Z,92.80
2024-01-06T05:07:08.775Z,92.90
2024-01-06T05:09:35.493Z,92.80
2024-01-06T05:12:02.241Z,93.00
2024-01-06T05:14:28.904Z,92.90
2024-01-06T05:16:55.618Z,92.90
2024-01-06T05:19:22.876Z,92.80
2024-01-06T05:21:50.221Z,92.90
2024-01-06T05:24:16.963Z,93.00
2024-01-06T05:26:43.684Z,93.00
2024-01-06T05:29:10.354Z,93.00
2024-01-06T05:31:37.215Z,92.80
2024-01-06T05:34:04.061Z,92.80
2024-01-06T05:36:30.822Z,92.80
2024-01-06T05:38:57.474Z,92.70
2024-01-06T05:41:24.241Z,92.60
2024-01-06T05:43:50.893Z,92.40
2024-01-06T05:46:25.199Z,92.60
2024-01-06T05:48:52.191Z,92.60
2024-01-06T05:51:19.041Z,92.80
2024-01-06T05:53:45.806Z,92.90
2024-01-06T05:56:12.508Z,92.40
2024-01-06T05:58:39.400Z,92.80
2024-01-06T06:01:06.239Z,93.10
2024-01-06T06:03:33.173Z,92.90
2024-01-06T06:05:59.965Z,92.90
2024-01-06T06:08:26.745Z,93.00
2024-01-06T06:11:02.619Z,93.50
2024-01-06T06:13:29.896Z,93.40
2024-01-06T06:15:56.737Z,93.20
2024-01-06T06:18:23.798Z,93.30
2024-01-06T06:20:50.621Z,93.00
2024-01-06T06:23:17.371Z,93.30
2024-01-06T06:25:44.122Z,93.10
2024-01-06T06:28:10.826Z,93.00
2024-01-06T06:30:37.593Z,93.00
2024-01-06T06:33:04.676Z,93.20
2024-01-06T06:35:31.426Z,93.00
2024-01-06T06:37:58.117Z,93.00
2024-01-06T06:40:25.189Z,92.80
2024-01-06T06:42:51.952Z,93.10
2024-01-06T06:45:21.884Z,93.20
2024-01-06T06:47:48.624Z,92.90
2024-01-06T06:50:15.350Z,93.00
2024-01-06T06:52:43.208Z,93.20
2024-01-06T06:55:10.010Z,92.80
2024-01-06T06:57:37.305Z,93.00
2024-01-06T07:00:04.359Z,93.10
2024-01-06T07:02:31.099Z,93.30
2024-01-06T07:04:57.813Z,93.20
2024-01-06T07:07:24.557Z,93.10
2024-01-06T07:09:51.296Z,93.10
2024-01-06T07:12:18.003Z,93.40
2024-01-06T07:14:44.722Z,93.10
2024-01-06T07:17:11.380Z,93.20
2024-01-06T07:19:40.193Z,93.10
2024-01-06T07:22:07.594Z,93.40
2024-01-06T07:24:34.379Z,93.20
2024-01-06T07:27:01.027Z,93.30
2024-01-06T07:29:27.676Z,93.00
2024-01-06T07:31:54.410Z,93.40
2024-01-06T07:34:21.271Z,93.50
2024-01-06T07:36:48.139Z,93.40
2024-01-06T07:39:14.973Z,93.20
2024-01-06T07:41:41.716Z,93.30
2024-01-06T07:44:08.449Z,93.40
2024-01-06T07:46:36.284Z,93.40
2024-01-06T07:49:03.144Z,93.40
2024-01-06T07:51:29.906Z,93.30
2024-01-06T07:53:56.580Z,93.40
2024-01-06T07:56:23.306Z,93.60
2024-01-06T07:58:50.006Z,93.60
2024-01-06T08:01:16.812Z,93.40
2024-01-06T08:03:44.037Z,93.40
2024-01-06T08:06:11.572Z,93.30
2024-01-06T08:08:38.388Z,93.40
2024-01-06T08:11:05.121Z,93.10
2024-01-06T08:13:31.770Z,93.50
2024-01-06T08:15:58.472Z,93.40
2024-01-06T08:18:25.293Z,93.50
2024-01-06T08:20:52.073Z,93.60
2024-01-06T08:23:19.973Z,93.40
2024-01-06T08:25:47.004Z,93.60
2024-01-06T08:28:15.790Z,93.30
2024-01-06T08:30:42.637Z,93.30
2024-01-06T08:33:09.503Z,93.30
2024-01-06T08:35:41.168Z,93.40
2024-01-06T08:38:08.526Z,93.20
2024-01-06T08:40:36.107Z,93.30
2024-01-06T08:43:03.926Z,93.40
2024-01-06T08:45:30.697Z,93.50
2024-01-06T08:47:58.093Z,93.50
2024-01-06T08:50:24.856Z,93.60
2024-01-06T08:52:51.489Z,93.40
2024-01-06T08:55:18.187Z,93.30
2024-01-06T08:57:44.912Z,93.10
2024-01-06T09:00:12.447Z,92.90
2024-01-06T09:02:39.419Z,92.80
2024-01-06T09:05:06.499Z,93.00
2024-01-06T09:07:33.206Z,93.10
2024-01-06T09:10:00.567Z,92.70
2024-01-06T09:12:27.408Z,93.10
2024-01-06T09:14:54.118Z,92.40
2024-01-06T09:17:20.989Z,91.90
2024-01-06T09:19:48.890Z,92.80
2024-01-06T09:22:15.938Z,92.50
2024-01-06T09:24:42.666Z,92.00
2024-01-06T09:27:09.386Z,92.00
2024-01-06T09:29:36.061Z,91.70
2024-01-06T09:32:03.389Z,91.40
2024-01-06T09:34:30.207Z,91.90
2024-01-06T09:36:57.025Z,91.80
2024-01-06T09:39:23.724Z,91.70
2024-01-06T09:41:50.440Z,90.70
2024-01-06T09:44:17.620Z,90.80
2024-01-06T09:46:45.038Z,91.20
2024-01-06T09:49:12.174Z,91.00
2024-01-06T09:51:40.905Z,91.00
2024-01-06T09:54:10.682Z,90.90
2024-01-06T09:56:37.606Z,91.30
2024-01-06T09:59:05.052Z,90.80
2024-01-06T10:01:31.759Z,90.30
2024-01-06T10:03:58.506Z,90.20
2024-01-06T10:06:25.774Z,91.00
2024-01-06T10:08:53.884Z,91.10
2024-01-06T10:11:22.841Z,90.60
2024-01-06T10:13:53.516Z,90.60
2024-01-06T10:16:21.010Z,90.30
2024-01-06T10:18:52.538Z,90.60
2024-01-06T10:21:23.055Z,90.50
2024-01-06T10:23:51.928Z,90.90
2024-01-06T10:26:19.224Z,90.60
2024-01-06T10:28:45.942Z,91.40
2024-01-06T10:31:13.044Z,90.20
2024-01-06T10:33:40.990Z,90.70
2024-01-06T10:36:09.772Z,90.40
2024-01-06T10:38:37.233Z,90.60
2024-01-06T10:41:11.137Z,89.90
2024-01-06T10:43:41.719Z,90.20
2024-01-06T10:46:12.660Z,90.30
2024-01-06T10:48:43.888Z,89.20
2024-01-06T10:51:11.911Z,90.00
2024-01-06T10:53:40.900Z,89.70
2024-01-06T10:56:11.940Z,90.40
2024-01-06T10:58:47.917Z,89.50
2024-01-06T11:01:17.488Z,88.10
2024-01-06T11:03:47.669Z,88.20
2024-01-06T11:06:14.679Z,88.40
2024-01-06T11:08:59.756Z,88.10
2024-01-06T11:11:27.172Z,89.10
2024-01-06T11:13:53.803Z,87.30
2024-01-06T11:16:37.545Z,87.30
2024-01-06T11:19:24.682Z,88.30
2024-01-06T11:21:51.745Z,88.40
2024-01-06T11:24:24.116Z,85.60
2024-01-06T11:26:53.014Z,85.90
2024-01-06T11:29:21.280Z,87.60
2024-01-06T11:32:27.015Z,87.50
2024-01-06T11:34:56.493Z,87.40
2024-01-06T11:37:37.504Z,87.10
2024-01-06T11:40:05.374Z,87.80
2024-01-06T11:42:36.610Z,87.50
2024-01-06T11:45:04.748Z,87.60
2024-01-06T11:47:32.912Z,87.60
2024-01-06T11:50:01.152Z,87.50
2024-01-06T11:52:28.532Z,87.00
2024-01-06T11:54:56.957Z,87.50
2024-01-06T11:57:23.784Z,87.50
2024-01-06T11:59:51.577Z,87.40
2024-01-06T12:02:23.614Z,87.20
2024-01-06T12:04:52.178Z,86.90
2024-01-06T12:07:20.917Z,88.40
2024-01-06T12:09:51.363Z,86.90
2024-01-06T12:12:19.401Z,86.50
2024-01-06T12:14:49.105Z,86.60
2024-01-06T12:17:16.005Z,86.40
2024-01-06T12:19:43.962Z,86.20
2024-01-06T12:22:16.798Z,86.40
2024-01-06T12:24:44.046Z,85.30
2024-01-06T12:27:11.545Z,85.90
2024-01-06T12:29:45.170Z,85.60
2024-01-06T12:32:14.562Z,85.70
2024-01-06T12:34:44.766Z,85.10
2024-01-06T12:37:14.325Z,85.90
2024-01-06T12:39:43.695Z,86.00
2024-01-06T12:42:10.948Z,85.60
2024-01-06T12:44:39.407Z,85.60
2024-01-06T12:47:06.628Z,85.90
2024-01-06T12:49:35.254Z,86.20
2024-01-06T12:52:03.356Z,86.00
2024-01-06T12:54:30.222Z,86.10
2024-01-06T12:56:57.037Z,86.30
2024-01-06T12:59:23.814Z,86.00
2024-01-06T13:01:51.163Z,85.30
2024-01-06T13:04:18.387Z,84.30
2024-01-06T13:06:45.622Z,85.50
2024-01-06T13:09:17.247Z,86.30
2024-01-06T13:11:47.228Z,85.70
2024-01-06T13:14:14.176Z,85.70
2024-01-06T13:16:40.869Z,86.30
2024-01-06T13:19:07.773Z,86.00
2024-01-06T13:21:36.249Z,86.40
2024-01-06T13:24:05.477Z,86.50
2024-01-06T13:26:32.431Z,86.20
2024-01-06T13:28:59.069Z,86.40
2024-01-06T13:31:25.949Z,84.80
2024-01-06T13:33:56.779Z,85.10
2024-01-06T13:36:23.669Z,84.30
2024-01-06T13:38:50.362Z,84.70
2024-01-06T13:41:17.143Z,85.20
2024-01-06T13:43:44.575Z,85.80
2024-01-06T13:46:14.873Z,85.90
2024-01-06T13:48:42.495Z,85.30
2024-01-06T13:51:09.982Z,86.00
2024-01-06T13:53:36.763Z,87.20
2024-01-06T13:56:05.231Z,86.60
2024-01-06T13:58:31.968Z,87.20
2024-01-06T14:00:58.712Z,87.70
2024-01-06T14:03:25.703Z,87.30
2024-01-06T14:05:54.540Z,87.80
2024-01-06T14:08:21.348Z,87.90
2024-01-06T14:10:48.049Z,87.50
2024-01-06T14:13:14.735Z,87.60
2024-01-06T14:15:41.519Z,87.70
2024-01-06T14:18:11.837Z,87.30
2024-01-06T14:20:39.535Z,87.70
2024-01-06T14:23:06.207Z,87.80
2024-01-06T14:25:32.898Z,87.80
2024-01-06T14:27:59.696Z,88.10
2024-01-06T14:30:26.483Z,88.90
2024-01-06T14:32:53.231Z,88.60
2024-01-06T14:35:19.930Z,88.20
2024-01-06T14:37:46.845Z,88.20
2024-01-06T14:40:14.048Z,88.00
2024-01-06T14:42:40.767Z,88.30
2024-01-06T14:45:09.381Z,87.70
2024-01-06T14:47:36.187Z,87.50
2024-01-06T14:50:03.329Z,87.60
2024-01-06T14:52:30.006Z,88.60
2024-01-06T14:54:56.759Z,88.10
2024-01-06T14:57:23.525Z,88.50
2024-01-06T14:59:50.302Z,88.50
2024-01-06T15:02:17.535Z,88.80
2024-01-06T15:04:44.391Z,88.70
2024-01-06T15:07:11.482Z,89.10
2024-01-06T15:09:42.530Z,88.90
2024-01-06T15:12:09.347Z,88.80
2024-01-06T15:14:36.429Z,88.80
2024-01-06T15:17:03.262Z,87.70
2024-01-06T15:19:32.375Z,88.00
2024-01-06T15:21:59.329Z,88.40
2024-01-06T15:24:26.180Z,87.90
2024-01-06T15:26:53.161Z,87.60
2024-01-06T15:29:19.968Z,86.90
2024-01-06T15:31:47.562Z,88.00
2024-01-06T15:34:14.532Z,87.30
2024-01-06T15:36:41.334Z,87.80
2024-01-06T15:39:08.150Z,87.50
2024-01-06T15:41:34.980Z,87.40
2024-01-06T15:44:01.634Z,87.10
2024-01-06T15:46:28.354Z,86.60
2024-01-06T15:48:55.153Z,85.70
2024-01-06T15:51:24.441Z,87.20
2024-01-06T15:53:51.599Z,87.60
2024-01-06T15:56:18.502Z,87.20
2024-01-06T15:58:45.163Z,86.60
2024-01-06T16:01:12.046Z,85.60
2024-01-06T16:03:39.230Z,87.20
2024-01-06T16:06:06.162Z,87.10
2024-01-06T16:08:33.375Z,86.50
2024-01-06T16:11:00.064Z,87.10
2024-01-06T16:13:26.821Z,86.40
2024-01-06T16:15:53.777Z,86.40
2024-01-06T16:18:20.948Z,85.70
2024-01-06T16:20:48.720Z,87.00
2024-01-06T16:23:18.094Z,86.70
2024-01-06T16:25:45.072Z,87.10
2024-01-06T16:28:14.693Z,86.70
2024-01-06T16:30:42.303Z,86.20
2024-01-06T16:33:09.488Z,86.80
2024-01-06T16:35:36.942Z,87.00
2024-01-06T16:38:03.802Z,85.80
2024-01-06T16:40:31.897Z,86.50
2024-01-06T16:42:58.563Z,86.70
2024-01-06T16:45:25.346Z,86.20
2024-01-06T16:47:52.126Z,86.80
2024-01-06T16:50:18.963Z,86.80
2024-01-06T16:52:45.632Z,86.70
2024-01-06T16:55:12.372Z,86.80
2024-01-06T16:57:39.329Z,86.30
2024-01-06T17:00:06.830Z,86.10
2024-01-06T17:02:33.664Z,86.70
2024-01-06T17:05:00.675Z,86.30
2024-01-06T17:07:27.544Z,85.70
2024-01-06T17:09:55.890Z,86.20
2024-01-06T17:12:23.260Z,86.10
2024-01-06T17:14:50.205Z,85.40
2024-01-06T17:17:17.020Z,86.20
2024-01-06T17:19:43.829Z,85.60
2024-01-06T17:22:10.622Z,86.00
2024-01-06T17:24:37.540Z,85.70
2024-01-06T17:27:04.492Z,85.20
2024-01-06T17:29:31.736Z,85.60
2024-01-06T17:31:59.172Z,85.90
2024-01-06T17:34:25.915Z,86.10
2024-01-06T17:36:52.659Z,85.10
2024-01-06T17:39:19.468Z,84.60
2024-01-06T17:41:53.509Z,85.10
2024-01-06T17:44:26.373Z,85.20
2024-01-06T17:46:53.078Z,84.90
2024-01-06T17:49:20.156Z,85.40
2024-01-06T17:51:47.527Z,85.20
2024-01-06T17:54:15.391Z,86.50
2024-01-06T17:56:42.218Z,86.20
2024-01-06T17:59:09.010Z,85.90
2024-01-06T18:01:36.614Z,86.20
2024-01-06T18:04:03.974Z,85.50
2024-01-06T18:06:31.329Z,85.20
2024-01-06T18:08:59.162Z,85.00
2024-01-06T18:11:25.917Z,85.20
2024-01-06T18:13:52.694Z,84.30
2024-01-06T18:16:19.404Z,84.70
2024-01-06T18:18:46.287Z,83.60
2024-01-06T18:21:13.038Z,84.30
2024-01-06T18:23:39.861Z,83.40
2024-01-06T18:26:06.488Z,84.20
2024-01-06T18:28:33.481Z,84.20
2024-01-06T18:31:00.702Z,83.90
2024-01-06T18:33:27.927Z,82.80
2024-01-06T18:35:54.791Z,82.60
2024-01-06T18:38:21.447Z,82.30
2024-01-06T18:40:48.262Z,83.50
2024-01-06T18:43:15.050Z,83.40
2024-01-06T18:45:41.870Z,81.80
2024-01-06T18:48:08.729Z,83.10
2024-01-06T18:50:35.561Z,82.30
2024-01-06T18:53:02.270Z,83.10
2024-01-06T18:55:29.002Z,83.10
2024-01-06T18:57:56.117Z,83.20
2024-01-06T19:00:22.892Z,83.40
2024-01-06T19:02:51.287Z,82.80
2024-01-06T19:05:18.430Z,82.30
2024-01-06T19:07:46.321Z,82.00
2024-01-06T19:10:13.058Z,82.00
2024-01-06T19:12:39.988Z,82.90
2024-01-06T19:15:07.009Z,82.80
2024-01-06T19:17:33.777Z,82.60
2024-01-06T19:20:04.893Z,82.50
2024-01-06T19:22:31.845Z,82.70
2024-01-06T19:24:58.662Z,81.90
2024-01-06T19:27:25.489Z,83.20
2024-01-06T19:29:53.952Z,82.20
2024-01-06T19:32:20.721Z,83.00
2024-01-06T19:34:50.603Z,82.10
2024-01-06T19:37:17.430Z,82.30
2024-01-06T19:39:44.329Z,82.30
2024-01-06T19:42:11.089Z,82.30
2024-01-06T19:44:37.825Z,82.60
2024-01-06T19:47:04.891Z,82.30
2024-01-06T19:49:32.583Z,82.70
2024-01-06T19:51:59.540Z,82.70
2024-01-06T19:54:26.365Z,82.60
2024-01-06T19:56:55.403Z,82.50
2024-01-06T19:59:22.103Z,82.30
2024-01-06T20:01:49.416Z,82.30
2024-01-06T20:04:16.197Z,82.30
2024-01-06T20:06:44.745Z,81.90
2024-01-06T20:09:12.993Z,82.60
2024-01-06T20:11:41.872Z,82.60
2024-01-06T20:14:08.555Z,82.30
2024-01-06T20:16:35.491Z,82.50
2024-01-06T20:19:02.273Z,83.00
2024-01-06T20:21:28.989Z,83.10
2024-01-06T20:23:55.723Z,83.20
2024-01-06T20:26:22.436Z,82.70
2024-01-06T20:28:49.206Z,82.50
2024-01-06T20:31:16.609Z,82.30
2024-01-06T20:33:45.426Z,82.30
2024-01-06T20:36:14.401Z,82.30
2024-01-06T20:38:42.743Z,82.40
2024-01-06T20:41:10.581Z,82.60
2024-01-06T20:43:40.760Z,82.50
2024-01-06T20:46:07.945Z,82.20
2024-01-06T20:48:34.752Z,82.90
2024-01-06T20:51:03.433Z,82.90
2024-01-06T20:53:30.105Z,83.20
2024-01-06T20:55:56.782Z,82.90
2024-01-06T20:58:23.481Z,83.10
2024-01-06T21:00:50.222Z,83.00
2024-01-06T21:03:16.982Z,83.00
2024-01-06T21:05:43.841Z,83.00
2024-01-06T21:08:10.757Z,82.90
2024-01-06T21:10:37.483Z,83.20
2024-01-06T21:13:04.404Z,83.80
2024-01-06T21:15:32.095Z,83.80
2024-01-06T21:17:58.970Z,83.80
2024-01-06T21:20:25.647Z,83.60
2024-01-06T21:22:52.320Z,83.10
2024-01-06T21:25:22.647Z,83.70
2024-01-06T21:27:49.462Z,83.80
2024-01-06T21:30:16.564Z,83.70
2024-01-06T21:32:43.417Z,82.80
2024-01-06T21:35:10.292Z,82.90
2024-01-06T21:37:37.049Z,83.50
2024-01-06T21:40:07.762Z,83.70
2024-01-06T21:42:35.034Z,83.70
2024-01-06T21:45:03.079Z,83.80
2024-01-06T21:47:29.802Z,84.00
2024-01-06T21:49:56.656Z,84.40
2024-01-06T21:52:23.625Z,84.40
2024-01-06T21:54:50.295Z,84.50
2024-01-06T21:57:17.197Z,85.30
2024-01-06T21:59:43.921Z,85.40
2024-01-06T22:02:10.685Z,85.00
2024-01-06T22:04:37.394Z,85.10
2024-01-06T22:07:04.197Z,85.50
2024-01-06T22:09:30.947Z,85.40
2024-01-06T22:11:58.329Z,85.10
2024-01-06T22:14:25.031Z,85.20
2024-01-06T22:16:51.752Z,85.00
2024-01-06T22:19:18.470Z,84.50
2024-01-06T22:21:47.965Z,84.90
2024-01-06T22:24:16.946Z,85.30
2024-01-06T22:26:43.816Z,85.10
2024-01-06T22:29:11.016Z,85.40
2024-01-06T22:31:42.902Z,85.30
2024-01-06T22:34:11.196Z,85.00
2024-01-06T22:36:38.166Z,85.80
2024-01-06T22:39:05.076Z,85.40
2024-01-06T22:41:31.766Z,85.50
2024-01-06T22:43:58.383Z,85.90
2024-01-06T22:46:26.378Z,85.90
2024-01-06T22:48:53.733Z,86.20
2024-01-06T22:51:20.675Z,86.10
2024-01-06T22:53:47.439Z,86.30
2024-01-06T22:56:14.397Z,86.30
2024-01-06T22:58:41.456Z,86.00
2024-01-06T23:01:09.781Z,86.10
2024-01-06T23:03:38.684Z,86.00
2024-01-06T23:06:08.180Z,86.10
2024-01-06T23:08:35.168Z,86.50
2024-01-06T23:11:02.276Z,86.80
2024-01-06T23:13:28.956Z,86.20
2024-01-06T23:15:56.801Z,85.90
2024-01-06T23:18:24.212Z,86.00
2024-01-06T23:20:51.123Z,86.30
2024-01-06T23:23:17.805Z,86.30
2024-01-06T23:25:44.463Z,86.30
2024-01-06T23:28:11.230Z,86.30
2024-01-06T23:30:39.703Z,86.30
2024-01-06T23:33:06.517Z,86.40
2024-01-06T23:35:33.388Z,86.40
2024-01-06T23:38:00.077Z,87.00
2024-01-06T23:40:26.750Z,87.50
2024-01-06T23:42:53.461Z,87.00
2024-01-06T23:45:20.167Z,87.00
2024-01-06T23:47:47.021Z,86.80
2024-01-06T23:50:13.704Z,86.70
2024-01-06T23:52:40.340Z,86.70
2024-01-06T23:55:07.332Z,86.80
2024-01-06T23:57:34.139Z,86.70
